sensor_id;sensor_type;location;lat;lon;timestamp;temperature;humidity
23100;DHT22;53791;50.696;4.396;2023-10-13T00:01:42;19.00;99.90
23100;DHT22;53791;50.696;4.396;2023-10-13T00:04:10;19.00;99.90
23100;DHT22;53791;50.696;4.396;2023-10-13T00:06:39;19.00;99.90
23100;DHT22;53791;50.696;4.396;2023-10-13T00:09:09;19.00;99.90
23100;DHT22;53791;50.696;4.396;2023-10-13T00:11:42;19.00;99.90
23100;DHT22;53791;50.696;4.396;2023-10-13T00:14:13;19.00;99.90
23100;DHT22;53791;50.696;4.396;2023-10-13T00:16:44;19.00;99.90
23100;DHT22;53791;50.696;4.396;2023-10-13T00:25:56;19.00;99.90
23100;DHT22;53791;50.696;4.396;2023-10-13T00:28:26;19.00;99.90
23100;DHT22;53791;50.696;4.396;2023-10-13T00:30:55;19.00;99.90
23100;DHT22;53791;50.696;4.396;2023-10-13T00:33:30;19.00;99.90
23100;DHT22;53791;50.696;4.396;2023-10-13T00:35:58;19.00;99.90
23100;DHT22;53791;50.696;4.396;2023-10-13T00:38:27;19.00;99.90
23100;DHT22;53791;50.696;4.396;2023-10-13T00:40:56;19.00;99.90
23100;DHT22;53791;50.696;4.396;2023-10-13T00:43:28;19.10;99.90
23100;DHT22;53791;50.696;4.396;2023-10-13T00:46:00;19.00;99.90
23100;DHT22;53791;50.696;4.396;2023-10-13T00:48:34;19.00;99.90
23100;DHT22;53791;50.696;4.396;2023-10-13T00:51:05;19.00;99.90
23100;DHT22;53791;50.696;4.396;2023-10-13T00:53:39;19.00;99.90
23100;DHT22;53791;50.696;4.396;2023-10-13T00:56:07;19.00;99.90
23100;DHT22;53791;50.696;4.396;2023-10-13T01:05:21;19.00;99.90
23100;DHT22;53791;50.696;4.396;2023-10-13T01:07:49;19.00;99.90
23100;DHT22;53791;50.696;4.396;2023-10-13T01:10:21;19.00;99.90
23100;DHT22;53791;50.696;4.396;2023-10-13T01:12:50;18.90;99.90
23100;DHT22;53791;50.696;4.396;2023-10-13T01:15:19;18.90;99.90
23100;DHT22;53791;50.696;4.396;2023-10-13T01:17:51;18.90;99.90
23100;DHT22;53791;50.696;4.396;2023-10-13T01:20:20;18.90;99.90
23100;DHT22;53791;50.696;4.396;2023-10-13T01:22:50;18.90;99.90
23100;DHT22;53791;50.696;4.396;2023-10-13T01:25:24;18.90;99.90
23100;DHT22;53791;50.696;4.396;2023-10-13T01:27:55;19.00;99.90
23100;DHT22;53791;50.696;4.396;2023-10-13T01:30:25;18.90;99.90
23100;DHT22;53791;50.696;4.396;2023-10-13T01:33:00;18.90;99.90
23100;DHT22;53791;50.696;4.396;2023-10-13T01:35:27;19.00;99.90
23100;DHT22;53791;50.696;4.396;2023-10-13T01:37:56;19.00;99.90
23100;DHT22;53791;50.696;4.396;2023-10-13T01:40:24;19.00;99.90
23100;DHT22;53791;50.696;4.396;2023-10-13T01:42:53;19.00;99.90
23100;DHT22;53791;50.696;4.396;2023-10-13T01:45:22;19.00;99.90
23100;DHT22;53791;50.696;4.396;2023-10-13T01:48:03;19.00;99.90
23100;DHT22;53791;50.696;4.396;2023-10-13T01:50:31;19.00;99.90
23100;DHT22;53791;50.696;4.396;2023-10-13T01:52:59;19.00;99.90
23100;DHT22;53791;50.696;4.396;2023-10-13T01:55:40;18.90;99.90
23100;DHT22;53791;50.696;4.396;2023-10-13T01:58:15;19.00;99.90
23100;DHT22;53791;50.696;4.396;2023-10-13T02:00:43;18.90;99.90
23100;DHT22;53791;50.696;4.396;2023-10-13T02:03:25;18.90;99.90
23100;DHT22;53791;50.696;4.396;2023-10-13T02:05:54;18.90;99.90
23100;DHT22;53791;50.696;4.396;2023-10-13T02:08:29;18.90;99.90
23100;DHT22;53791;50.696;4.396;2023-10-13T02:10:58;18.90;99.90
23100;DHT22;53791;50.696;4.396;2023-10-13T02:13:27;18.90;99.90
23100;DHT22;53791;50.696;4.396;2023-10-13T02:15:57;18.90;99.90
23100;DHT22;53791;50.696;4.396;2023-10-13T02:18:26;19.00;99.90
23100;DHT22;53791;50.696;4.396;2023-10-13T02:21:01;18.90;99.90
23100;DHT22;53791;50.696;4.396;2023-10-13T02:23:24;19.00;99.90
23100;DHT22;53791;50.696;4.396;2023-10-13T02:25:53;19.00;99.90
23100;DHT22;53791;50.696;4.396;2023-10-13T02:28:22;19.00;99.90
23100;DHT22;53791;50.696;4.396;2023-10-13T02:30:56;19.00;99.90
23100;DHT22;53791;50.696;4.396;2023-10-13T02:33:25;19.00;99.90
23100;DHT22;53791;50.696;4.396;2023-10-13T02:36:00;19.00;99.90
23100;DHT22;53791;50.696;4.396;2023-10-13T02:38:30;19.00;99.90
23100;DHT22;53791;50.696;4.396;2023-10-13T02:41:02;19.00;99.90
23100;DHT22;53791;50.696;4.396;2023-10-13T02:43:36;19.00;99.90
23100;DHT22;53791;50.696;4.396;2023-10-13T02:46:07;19.00;99.90
23100;DHT22;53791;50.696;4.396;2023-10-13T02:51:57;19.00;99.90
23100;DHT22;53791;50.696;4.396;2023-10-13T02:54:30;19.10;99.90
23100;DHT22;53791;50.696;4.396;2023-10-13T02:56:58;19.10;99.90
23100;DHT22;53791;50.696;4.396;2023-10-13T02:59:27;19.10;99.90
23100;DHT22;53791;50.696;4.396;2023-10-13T03:02:03;19.10;99.90
23100;DHT22;53791;50.696;4.396;2023-10-13T03:11:16;19.00;99.90
23100;DHT22;53791;50.696;4.396;2023-10-13T03:13:45;19.00;99.90
23100;DHT22;53791;50.696;4.396;2023-10-13T03:16:16;19.00;99.90
23100;DHT22;53791;50.696;4.396;2023-10-13T03:18:49;19.00;99.90
23100;DHT22;53791;50.696;4.396;2023-10-13T03:21:23;19.10;99.90
23100;DHT22;53791;50.696;4.396;2023-10-13T03:23:58;19.10;99.90
23100;DHT22;53791;50.696;4.396;2023-10-13T03:33:01;19.00;99.90
23100;DHT22;53791;50.696;4.396;2023-10-13T03:35:30;19.00;99.90
23100;DHT22;53791;50.696;4.396;2023-10-13T03:37:59;19.00;99.90
23100;DHT22;53791;50.696;4.396;2023-10-13T03:40:31;19.00;99.90
23100;DHT22;53791;50.696;4.396;2023-10-13T03:42:59;19.00;99.90
23100;DHT22;53791;50.696;4.396;2023-10-13T03:45:37;18.90;99.90
23100;DHT22;53791;50.696;4.396;2023-10-13T03:48:11;18.90;99.90
23100;DHT22;53791;50.696;4.396;2023-10-13T03:50:40;18.90;99.90
23100;DHT22;53791;50.696;4.396;2023-10-13T03:53:09;18.80;99.90
23100;DHT22;53791;50.696;4.396;2023-10-13T03:55:39;18.80;99.90
23100;DHT22;53791;50.696;4.396;2023-10-13T03:58:15;18.70;99.90
23100;DHT22;53791;50.696;4.396;2023-10-13T04:00:53;18.70;99.90
23100;DHT22;53791;50.696;4.396;2023-10-13T04:03:26;18.80;99.90
23100;DHT22;53791;50.696;4.396;2023-10-13T04:12:31;18.70;99.90
23100;DHT22;53791;50.696;4.396;2023-10-13T04:15:28;18.60;99.90
23100;DHT22;53791;50.696;4.396;2023-10-13T04:17:59;18.60;99.90
23100;DHT22;53791;50.696;4.396;2023-10-13T04:20:31;18.60;99.90
23100;DHT22;53791;50.696;4.396;2023-10-13T04:23:02;18.70;99.90
23100;DHT22;53791;50.696;4.396;2023-10-13T04:25:31;18.70;99.90
23100;DHT22;53791;50.696;4.396;2023-10-13T04:28:11;18.70;99.90
23100;DHT22;53791;50.696;4.396;2023-10-13T04:30:51;18.70;99.90
23100;DHT22;53791;50.696;4.396;2023-10-13T04:33:28;18.70;99.90
23100;DHT22;53791;50.696;4.396;2023-10-13T04:36:10;18.70;99.90
23100;DHT22;53791;50.696;4.396;2023-10-13T04:38:46;18.70;99.90
23100;DHT22;53791;50.696;4.396;2023-10-13T04:41:28;18.70;99.90
23100;DHT22;53791;50.696;4.396;2023-10-13T04:44:00;18.70;99.90
23100;DHT22;53791;50.696;4.396;2023-10-13T04:46:45;18.70;99.90
23100;DHT22;53791;50.696;4.396;2023-10-13T04:49:15;18.70;99.90
23100;DHT22;53791;50.696;4.396;2023-10-13T04:52:03;18.80;99.90
23100;DHT22;53791;50.696;4.396;2023-10-13T04:54:43;18.80;99.90
23100;DHT22;53791;50.696;4.396;2023-10-13T04:57:27;18.80;99.90
23100;DHT22;53791;50.696;4.396;2023-10-13T05:00:01;18.70;99.90
23100;DHT22;53791;50.696;4.396;2023-10-13T05:02:34;18.80;99.90
23100;DHT22;53791;50.696;4.396;2023-10-13T05:05:11;18.80;99.90
23100;DHT22;53791;50.696;4.396;2023-10-13T05:07:43;18.80;99.90
23100;DHT22;53791;50.696;4.396;2023-10-13T05:10:38;18.80;99.90
23100;DHT22;53791;50.696;4.396;2023-10-13T05:16:05;18.70;99.90
23100;DHT22;53791;50.696;4.396;2023-10-13T05:18:50;18.70;99.90
23100;DHT22;53791;50.696;4.396;2023-10-13T05:21:35;18.60;99.90
23100;DHT22;53791;50.696;4.396;2023-10-13T05:24:20;18.60;99.90
23100;DHT22;53791;50.696;4.396;2023-10-13T05:27:12;18.60;99.90
23100;DHT22;53791;50.696;4.396;2023-10-13T05:29:59;18.60;99.90
23100;DHT22;53791;50.696;4.396;2023-10-13T05:32:44;18.70;99.90
23100;DHT22;53791;50.696;4.396;2023-10-13T05:35:31;18.70;99.90
23100;DHT22;53791;50.696;4.396;2023-10-13T05:38:18;18.70;99.90
23100;DHT22;53791;50.696;4.396;2023-10-13T05:41:05;18.70;99.90
23100;DHT22;53791;50.696;4.396;2023-10-13T05:43:51;18.60;99.90
23100;DHT22;53791;50.696;4.396;2023-10-13T05:46:36;18.60;99.90
23100;DHT22;53791;50.696;4.396;2023-10-13T05:49:08;18.70;99.90
23100;DHT22;53791;50.696;4.396;2023-10-13T05:51:44;18.60;99.90
23100;DHT22;53791;50.696;4.396;2023-10-13T05:54:23;18.60;99.90
23100;DHT22;53791;50.696;4.396;2023-10-13T05:56:52;18.60;99.90
23100;DHT22;53791;50.696;4.396;2023-10-13T05:59:41;18.60;99.90
23100;DHT22;53791;50.696;4.396;2023-10-13T06:02:26;18.60;99.90
23100;DHT22;53791;50.696;4.396;2023-10-13T06:05:19;18.60;99.90
23100;DHT22;53791;50.696;4.396;2023-10-13T06:08:11;18.60;99.90
23100;DHT22;53791;50.696;4.396;2023-10-13T06:11:03;18.60;99.90
23100;DHT22;53791;50.696;4.396;2023-10-13T06:13:48;18.60;99.90
23100;DHT22;53791;50.696;4.396;2023-10-13T06:16:34;18.60;99.90
23100;DHT22;53791;50.696;4.396;2023-10-13T06:19:19;18.60;99.90
23100;DHT22;53791;50.696;4.396;2023-10-13T06:22:04;18.60;99.90
23100;DHT22;53791;50.696;4.396;2023-10-13T06:24:52;18.60;99.90
23100;DHT22;53791;50.696;4.396;2023-10-13T06:27:38;18.60;99.90
23100;DHT22;53791;50.696;4.396;2023-10-13T06:30:25;18.60;99.90
23100;DHT22;53791;50.696;4.396;2023-10-13T06:32:59;18.60;99.90
23100;DHT22;53791;50.696;4.396;2023-10-13T06:35:49;18.60;99.90
23100;DHT22;53791;50.696;4.396;2023-10-13T06:38:28;18.60;99.90
23100;DHT22;53791;50.696;4.396;2023-10-13T06:40:57;18.60;99.90
23100;DHT22;53791;50.696;4.396;2023-10-13T06:43:25;18.60;99.90
23100;DHT22;53791;50.696;4.396;2023-10-13T06:45:54;18.60;99.90
23100;DHT22;53791;50.696;4.396;2023-10-13T06:48:30;18.60;99.90
23100;DHT22;53791;50.696;4.396;2023-10-13T06:51:07;18.60;99.90
23100;DHT22;53791;50.696;4.396;2023-10-13T06:53:37;18.60;99.90
23100;DHT22;53791;50.696;4.396;2023-10-13T06:56:08;18.70;99.90
23100;DHT22;53791;50.696;4.396;2023-10-13T06:58:36;18.60;99.90
23100;DHT22;53791;50.696;4.396;2023-10-13T07:01:07;18.60;99.90
23100;DHT22;53791;50.696;4.396;2023-10-13T07:03:44;18.70;99.90
23100;DHT22;53791;50.696;4.396;2023-10-13T07:06:08;18.70;99.90
23100;DHT22;53791;50.696;4.396;2023-10-13T07:08:37;18.70;99.90
23100;DHT22;53791;50.696;4.396;2023-10-13T07:11:05;18.70;99.90
23100;DHT22;53791;50.696;4.396;2023-10-13T07:13:34;18.80;99.90
23100;DHT22;53791;50.696;4.396;2023-10-13T07:16:09;18.70;99.90
23100;DHT22;53791;50.696;4.396;2023-10-13T07:18:39;18.80;99.90
23100;DHT22;53791;50.696;4.396;2023-10-13T07:21:11;18.90;99.90
23100;DHT22;53791;50.696;4.396;2023-10-13T07:23:38;18.90;99.90
23100;DHT22;53791;50.696;4.396;2023-10-13T07:26:07;19.00;99.90
23100;DHT22;53791;50.696;4.396;2023-10-13T07:35:05;19.00;99.90
23100;DHT22;53791;50.696;4.396;2023-10-13T07:37:36;19.10;99.90
23100;DHT22;53791;50.696;4.396;2023-10-13T07:46:46;19.40;99.90
23100;DHT22;53791;50.696;4.396;2023-10-13T07:49:15;19.40;99.90
23100;DHT22;53791;50.696;4.396;2023-10-13T07:51:50;19.40;99.90
23100;DHT22;53791;50.696;4.396;2023-10-13T07:54:15;19.40;99.90
23100;DHT22;53791;50.696;4.396;2023-10-13T07:56:49;19.50;99.90
23100;DHT22;53791;50.696;4.396;2023-10-13T07:59:17;19.50;99.90
23100;DHT22;53791;50.696;4.396;2023-10-13T08:01:46;19.60;99.90
23100;DHT22;53791;50.696;4.396;2023-10-13T08:04:13;19.60;99.90
23100;DHT22;53791;50.696;4.396;2023-10-13T08:06:43;19.50;99.90
23100;DHT22;53791;50.696;4.396;2023-10-13T08:09:16;19.50;99.90
23100;DHT22;53791;50.696;4.396;2023-10-13T08:12:00;19.50;99.90
23100;DHT22;53791;50.696;4.396;2023-10-13T08:14:27;19.50;99.90
23100;DHT22;53791;50.696;4.396;2023-10-13T08:16:59;19.60;99.90
23100;DHT22;53791;50.696;4.396;2023-10-13T08:19:28;19.60;99.90
23100;DHT22;53791;50.696;4.396;2023-10-13T08:22:02;19.50;99.90
23100;DHT22;53791;50.696;4.396;2023-10-13T08:24:45;19.70;99.90
23100;DHT22;53791;50.696;4.396;2023-10-13T08:27:16;19.70;99.90
23100;DHT22;53791;50.696;4.396;2023-10-13T08:30:04;19.70;99.90
23100;DHT22;53791;50.696;4.396;2023-10-13T08:33:00;19.70;99.90
23100;DHT22;53791;50.696;4.396;2023-10-13T08:35:28;19.80;99.90
23100;DHT22;53791;50.696;4.396;2023-10-13T08:38:03;19.80;99.90
23100;DHT22;53791;50.696;4.396;2023-10-13T08:40:31;19.90;99.90
23100;DHT22;53791;50.696;4.396;2023-10-13T08:43:13;19.90;99.90
23100;DHT22;53791;50.696;4.396;2023-10-13T08:45:41;19.90;99.90
23100;DHT22;53791;50.696;4.396;2023-10-13T08:48:11;19.90;99.90
23100;DHT22;53791;50.696;4.396;2023-10-13T08:50:47;19.80;99.90
23100;DHT22;53791;50.696;4.396;2023-10-13T08:53:21;19.90;99.90
23100;DHT22;53791;50.696;4.396;2023-10-13T08:56:03;20.00;99.90
23100;DHT22;53791;50.696;4.396;2023-10-13T08:58:52;20.10;99.90
23100;DHT22;53791;50.696;4.396;2023-10-13T09:01:30;20.10;99.90
23100;DHT22;53791;50.696;4.396;2023-10-13T09:04:18;20.30;99.90
23100;DHT22;53791;50.696;4.396;2023-10-13T09:06:51;20.20;99.90
23100;DHT22;53791;50.696;4.396;2023-10-13T09:09:46;20.20;99.90
23100;DHT22;53791;50.696;4.396;2023-10-13T09:12:30;20.20;99.90
23100;DHT22;53791;50.696;4.396;2023-10-13T09:15:05;20.20;99.90
23100;DHT22;53791;50.696;4.396;2023-10-13T09:17:42;20.30;99.90
23100;DHT22;53791;50.696;4.396;2023-10-13T09:20:30;20.30;99.90
23100;DHT22;53791;50.696;4.396;2023-10-13T09:23:07;20.40;99.90
23100;DHT22;53791;50.696;4.396;2023-10-13T09:25:33;20.40;99.90
23100;DHT22;53791;50.696;4.396;2023-10-13T09:28:14;20.30;99.90
23100;DHT22;53791;50.696;4.396;2023-10-13T09:30:48;20.40;99.90
23100;DHT22;53791;50.696;4.396;2023-10-13T09:33:19;20.40;99.90
23100;DHT22;53791;50.696;4.396;2023-10-13T09:35:45;20.50;99.90
23100;DHT22;53791;50.696;4.396;2023-10-13T09:38:24;20.40;99.90
23100;DHT22;53791;50.696;4.396;2023-10-13T09:40:51;20.40;99.90
23100;DHT22;53791;50.696;4.396;2023-10-13T09:43:21;20.40;99.90
23100;DHT22;53791;50.696;4.396;2023-10-13T09:45:49;20.50;99.90
23100;DHT22;53791;50.696;4.396;2023-10-13T09:48:39;20.50;99.90
23100;DHT22;53791;50.696;4.396;2023-10-13T09:51:14;20.60;99.90
23100;DHT22;53791;50.696;4.396;2023-10-13T09:53:48;20.60;99.90
23100;DHT22;53791;50.696;4.396;2023-10-13T09:56:37;20.70;99.90
23100;DHT22;53791;50.696;4.396;2023-10-13T09:59:08;20.70;99.90
23100;DHT22;53791;50.696;4.396;2023-10-13T10:01:46;20.80;99.90
23100;DHT22;53791;50.696;4.396;2023-10-13T10:04:21;20.90;99.90
23100;DHT22;53791;50.696;4.396;2023-10-13T10:06:58;21.00;99.90
23100;DHT22;53791;50.696;4.396;2023-10-13T10:09:28;21.10;99.90
23100;DHT22;53791;50.696;4.396;2023-10-13T10:12:11;21.20;99.90
23100;DHT22;53791;50.696;4.396;2023-10-13T10:18:30;21.40;99.90
23100;DHT22;53791;50.696;4.396;2023-10-13T10:21:04;21.50;99.90
23100;DHT22;53791;50.696;4.396;2023-10-13T10:23:39;21.60;99.90
23100;DHT22;53791;50.696;4.396;2023-10-13T10:26:10;21.60;99.90
23100;DHT22;53791;50.696;4.396;2023-10-13T10:28:39;21.70;99.90
23100;DHT22;53791;50.696;4.396;2023-10-13T10:31:09;21.70;99.90
23100;DHT22;53791;50.696;4.396;2023-10-13T10:33:41;21.70;99.90
23100;DHT22;53791;50.696;4.396;2023-10-13T10:36:09;21.70;99.90
23100;DHT22;53791;50.696;4.396;2023-10-13T10:38:52;21.80;99.90
23100;DHT22;53791;50.696;4.396;2023-10-13T10:41:26;21.80;99.90
23100;DHT22;53791;50.696;4.396;2023-10-13T10:43:58;21.80;99.90
23100;DHT22;53791;50.696;4.396;2023-10-13T10:46:28;21.80;99.90
23100;DHT22;53791;50.696;4.396;2023-10-13T10:49:03;21.90;99.90
23100;DHT22;53791;50.696;4.396;2023-10-13T10:51:29;21.90;99.90
23100;DHT22;53791;50.696;4.396;2023-10-13T10:54:02;22.00;99.90
23100;DHT22;53791;50.696;4.396;2023-10-13T10:56:31;22.00;99.90
23100;DHT22;53791;50.696;4.396;2023-10-13T10:59:05;22.20;99.90
23100;DHT22;53791;50.696;4.396;2023-10-13T11:01:42;22.20;99.90
23100;DHT22;53791;50.696;4.396;2023-10-13T11:04:08;22.20;99.90
23100;DHT22;53791;50.696;4.396;2023-10-13T11:06:37;22.20;99.90
23100;DHT22;53791;50.696;4.396;2023-10-13T11:09:12;22.20;99.90
23100;DHT22;53791;50.696;4.396;2023-10-13T11:12:12;22.10;99.90
23100;DHT22;53791;50.696;4.396;2023-10-13T11:14:45;22.00;99.90
23100;DHT22;53791;50.696;4.396;2023-10-13T11:17:26;22.00;99.90
23100;DHT22;53791;50.696;4.396;2023-10-13T11:19:55;22.00;99.90
23100;DHT22;53791;50.696;4.396;2023-10-13T11:22:23;22.00;99.90
23100;DHT22;53791;50.696;4.396;2023-10-13T11:31:27;22.10;99.90
23100;DHT22;53791;50.696;4.396;2023-10-13T11:33:56;22.00;99.90
23100;DHT22;53791;50.696;4.396;2023-10-13T11:36:25;22.00;99.90
23100;DHT22;53791;50.696;4.396;2023-10-13T11:38:54;21.90;99.90
23100;DHT22;53791;50.696;4.396;2023-10-13T11:41:24;22.00;99.90
23100;DHT22;53791;50.696;4.396;2023-10-13T11:43:54;22.00;99.90
23100;DHT22;53791;50.696;4.396;2023-10-13T11:46:31;22.00;99.90
23100;DHT22;53791;50.696;4.396;2023-10-13T11:49:10;22.00;99.90
23100;DHT22;53791;50.696;4.396;2023-10-13T11:52:01;22.00;99.90
23100;DHT22;53791;50.696;4.396;2023-10-13T11:54:32;22.10;99.90
23100;DHT22;53791;50.696;4.396;2023-10-13T11:57:08;22.10;99.90
23100;DHT22;53791;50.696;4.396;2023-10-13T11:59:34;22.10;99.90
23100;DHT22;53791;50.696;4.396;2023-10-13T12:02:03;22.10;99.90
23100;DHT22;53791;50.696;4.396;2023-10-13T12:04:51;22.10;99.90
23100;DHT22;53791;50.696;4.396;2023-10-13T12:07:21;22.10;99.90
23100;DHT22;53791;50.696;4.396;2023-10-13T12:10:10;22.10;99.90
23100;DHT22;53791;50.696;4.396;2023-10-13T12:12:46;22.10;99.90
23100;DHT22;53791;50.696;4.396;2023-10-13T12:15:16;22.10;99.90
23100;DHT22;53791;50.696;4.396;2023-10-13T12:17:45;22.10;99.90
23100;DHT22;53791;50.696;4.396;2023-10-13T12:20:14;22.10;99.90
23100;DHT22;53791;50.696;4.396;2023-10-13T12:22:46;22.10;99.90
23100;DHT22;53791;50.696;4.396;2023-10-13T12:25:21;22.10;99.90
23100;DHT22;53791;50.696;4.396;2023-10-13T12:27:57;22.00;99.90
23100;DHT22;53791;50.696;4.396;2023-10-13T12:30:31;22.10;99.90
23100;DHT22;53791;50.696;4.396;2023-10-13T12:33:19;22.10;99.90
23100;DHT22;53791;50.696;4.396;2023-10-13T12:36:03;22.10;99.90
23100;DHT22;53791;50.696;4.396;2023-10-13T12:38:39;22.10;99.90
23100;DHT22;53791;50.696;4.396;2023-10-13T12:41:14;22.00;99.90
23100;DHT22;53791;50.696;4.396;2023-10-13T12:43:56;22.10;99.90
23100;DHT22;53791;50.696;4.396;2023-10-13T12:46:41;22.00;99.90
23100;DHT22;53791;50.696;4.396;2023-10-13T12:49:27;22.00;99.90
23100;DHT22;53791;50.696;4.396;2023-10-13T12:52:12;21.90;99.90
23100;DHT22;53791;50.696;4.396;2023-10-13T12:54:43;21.90;99.90
23100;DHT22;53791;50.696;4.396;2023-10-13T12:57:15;21.70;99.90
23100;DHT22;53791;50.696;4.396;2023-10-13T12:59:44;21.70;99.90
23100;DHT22;53791;50.696;4.396;2023-10-13T13:02:12;21.70;99.90
23100;DHT22;53791;50.696;4.396;2023-10-13T13:11:26;21.60;99.90
23100;DHT22;53791;50.696;4.396;2023-10-13T13:14:02;21.60;99.90
23100;DHT22;53791;50.696;4.396;2023-10-13T13:16:29;21.60;99.90
23100;DHT22;53791;50.696;4.396;2023-10-13T13:18:58;21.60;99.90
23100;DHT22;53791;50.696;4.396;2023-10-13T13:21:28;21.60;99.90
23100;DHT22;53791;50.696;4.396;2023-10-13T13:23:55;21.60;99.90
23100;DHT22;53791;50.696;4.396;2023-10-13T13:26:24;21.50;99.90
23100;DHT22;53791;50.696;4.396;2023-10-13T13:28:52;21.50;99.90
23100;DHT22;53791;50.696;4.396;2023-10-13T13:31:22;21.50;99.90
23100;DHT22;53791;50.696;4.396;2023-10-13T13:33:55;21.50;99.90
23100;DHT22;53791;50.696;4.396;2023-10-13T13:36:30;21.60;99.90
23100;DHT22;53791;50.696;4.396;2023-10-13T13:38:58;21.60;99.90
23100;DHT22;53791;50.696;4.396;2023-10-13T13:41:26;21.60;99.90
23100;DHT22;53791;50.696;4.396;2023-10-13T13:47:33;21.60;99.90
23100;DHT22;53791;50.696;4.396;2023-10-13T13:50:03;21.60;99.90
23100;DHT22;53791;50.696;4.396;2023-10-13T13:52:32;21.60;99.90
23100;DHT22;53791;50.696;4.396;2023-10-13T13:55:04;21.60;99.90
23100;DHT22;53791;50.696;4.396;2023-10-13T13:57:37;21.70;99.90
23100;DHT22;53791;50.696;4.396;2023-10-13T14:00:07;21.80;99.90
23100;DHT22;53791;50.696;4.396;2023-10-13T14:02:40;21.90;99.90
23100;DHT22;53791;50.696;4.396;2023-10-13T14:05:06;21.90;99.90
23100;DHT22;53791;50.696;4.396;2023-10-13T14:07:35;21.90;99.90
23100;DHT22;53791;50.696;4.396;2023-10-13T14:10:03;22.00;99.90
23100;DHT22;53791;50.696;4.396;2023-10-13T14:12:34;22.00;99.90
23100;DHT22;53791;50.696;4.396;2023-10-13T14:15:21;22.00;99.90
23100;DHT22;53791;50.696;4.396;2023-10-13T14:17:56;22.00;99.90
23100;DHT22;53791;50.696;4.396;2023-10-13T14:20:32;22.10;99.90
23100;DHT22;53791;50.696;4.396;2023-10-13T14:23:02;22.10;99.90
23100;DHT22;53791;50.696;4.396;2023-10-13T14:25:31;22.10;99.90
23100;DHT22;53791;50.696;4.396;2023-10-13T14:28:01;22.00;99.90
23100;DHT22;53791;50.696;4.396;2023-10-13T14:30:30;22.00;99.90
23100;DHT22;53791;50.696;4.396;2023-10-13T14:32:58;22.00;99.90
23100;DHT22;53791;50.696;4.396;2023-10-13T14:35:26;22.00;99.90
23100;DHT22;53791;50.696;4.396;2023-10-13T14:37:53;22.00;99.90
23100;DHT22;53791;50.696;4.396;2023-10-13T14:40:25;21.90;99.90
23100;DHT22;53791;50.696;4.396;2023-10-13T14:42:54;21.90;99.90
23100;DHT22;53791;50.696;4.396;2023-10-13T14:45:22;21.70;99.90
23100;DHT22;53791;50.696;4.396;2023-10-13T14:48:03;21.90;99.90
23100;DHT22;53791;50.696;4.396;2023-10-13T14:50:32;21.90;99.90
23100;DHT22;53791;50.696;4.396;2023-10-13T14:53:05;21.90;99.90
23100;DHT22;53791;50.696;4.396;2023-10-13T14:55:34;21.80;99.90
23100;DHT22;53791;50.696;4.396;2023-10-13T14:58:06;21.80;99.90
23100;DHT22;53791;50.696;4.396;2023-10-13T15:00:37;21.80;99.90
23100;DHT22;53791;50.696;4.396;2023-10-13T15:03:04;21.80;99.90
23100;DHT22;53791;50.696;4.396;2023-10-13T15:05:32;21.80;99.90
23100;DHT22;53791;50.696;4.396;2023-10-13T15:08:03;21.70;99.90
23100;DHT22;53791;50.696;4.396;2023-10-13T15:10:32;21.70;99.90
23100;DHT22;53791;50.696;4.396;2023-10-13T15:13:05;21.70;99.90
23100;DHT22;53791;50.696;4.396;2023-10-13T15:15:32;21.60;99.90
23100;DHT22;53791;50.696;4.396;2023-10-13T15:18:04;21.50;99.90
23100;DHT22;53791;50.696;4.396;2023-10-13T15:20:31;21.50;99.90
23100;DHT22;53791;50.696;4.396;2023-10-13T15:22:58;21.50;99.90
23100;DHT22;53791;50.696;4.396;2023-10-13T15:25:29;21.50;99.90
23100;DHT22;53791;50.696;4.396;2023-10-13T15:27:59;21.50;99.90
23100;DHT22;53791;50.696;4.396;2023-10-13T15:30:35;21.50;99.90
23100;DHT22;53791;50.696;4.396;2023-10-13T15:39:39;21.40;99.90
23100;DHT22;53791;50.696;4.396;2023-10-13T15:42:07;21.30;99.90
23100;DHT22;53791;50.696;4.396;2023-10-13T15:44:36;21.30;99.90
23100;DHT22;53791;50.696;4.396;2023-10-13T15:47:05;21.20;99.90
23100;DHT22;53791;50.696;4.396;2023-10-13T15:49:32;21.10;99.90
23100;DHT22;53791;50.696;4.396;2023-10-13T15:52:00;21.10;99.90
23100;DHT22;53791;50.696;4.396;2023-10-13T15:54:27;21.10;99.90
23100;DHT22;53791;50.696;4.396;2023-10-13T15:56:57;21.00;99.90
23100;DHT22;53791;50.696;4.396;2023-10-13T15:59:33;21.00;99.90
23100;DHT22;53791;50.696;4.396;2023-10-13T16:02:02;20.90;99.90
23100;DHT22;53791;50.696;4.396;2023-10-13T16:04:39;21.00;99.90
23100;DHT22;53791;50.696;4.396;2023-10-13T16:07:06;20.80;99.90
23100;DHT22;53791;50.696;4.396;2023-10-13T16:09:33;20.80;99.90
23100;DHT22;53791;50.696;4.396;2023-10-13T16:12:02;20.80;99.90
23100;DHT22;53791;50.696;4.396;2023-10-13T16:14:33;20.70;99.90
23100;DHT22;53791;50.696;4.396;2023-10-13T16:17:03;20.60;99.90
23100;DHT22;53791;50.696;4.396;2023-10-13T16:19:31;20.70;99.90
23100;DHT22;53791;50.696;4.396;2023-10-13T16:22:00;20.60;99.90
23100;DHT22;53791;50.696;4.396;2023-10-13T16:24:28;20.60;99.90
23100;DHT22;53791;50.696;4.396;2023-10-13T16:26:59;20.60;99.90
23100;DHT22;53791;50.696;4.396;2023-10-13T16:29:28;20.50;99.90
23100;DHT22;53791;50.696;4.396;2023-10-13T16:35:10;20.50;99.90
23100;DHT22;53791;50.696;4.396;2023-10-13T16:37:39;20.40;99.90
23100;DHT22;53791;50.696;4.396;2023-10-13T16:40:09;20.30;99.90
23100;DHT22;53791;50.696;4.396;2023-10-13T16:42:37;20.30;99.90
23100;DHT22;53791;50.696;4.396;2023-10-13T16:48:11;20.30;99.90
23100;DHT22;53791;50.696;4.396;2023-10-13T16:50:44;20.30;99.90
23100;DHT22;53791;50.696;4.396;2023-10-13T16:53:14;20.30;99.90
23100;DHT22;53791;50.696;4.396;2023-10-13T16:55:41;20.30;99.90
23100;DHT22;53791;50.696;4.396;2023-10-13T16:58:10;20.20;99.90
23100;DHT22;53791;50.696;4.396;2023-10-13T17:07:04;20.10;99.90
23100;DHT22;53791;50.696;4.396;2023-10-13T17:09:33;20.10;99.90
23100;DHT22;53791;50.696;4.396;2023-10-13T17:12:01;20.10;99.90
23100;DHT22;53791;50.696;4.396;2023-10-13T17:14:28;20.10;99.90
23100;DHT22;53791;50.696;4.396;2023-10-13T17:16:56;20.10;99.90
23100;DHT22;53791;50.696;4.396;2023-10-13T17:19:26;20.10;99.90
23100;DHT22;53791;50.696;4.396;2023-10-13T17:22:04;20.10;99.90
23100;DHT22;53791;50.696;4.396;2023-10-13T17:24:31;20.20;99.90
23100;DHT22;53791;50.696;4.396;2023-10-13T17:27:00;20.20;99.90
23100;DHT22;53791;50.696;4.396;2023-10-13T17:29:30;20.30;99.90
23100;DHT22;53791;50.696;4.396;2023-10-13T17:32:00;20.20;99.90
23100;DHT22;53791;50.696;4.396;2023-10-13T17:34:29;20.20;99.90
23100;DHT22;53791;50.696;4.396;2023-10-13T17:36:56;20.10;99.90
23100;DHT22;53791;50.696;4.396;2023-10-13T17:39:24;20.20;99.90
23100;DHT22;53791;50.696;4.396;2023-10-13T17:41:52;20.20;99.90